sensor_id;sensor_type;location;lat;lon;timestamp;pressure;altitude;pressure_sealevel;temperature;humidity
34185;BME280;20454;48.100;11.776;2022-12-10T00:00:20;94074.97;;;1.14;100.00
34185;BME280;20454;48.100;11.776;2022-12-10T00:02:46;94090.28;;;1.15;100.00
34185;BME280;20454;48.100;11.776;2022-12-10T00:05:11;94087.53;;;1.15;100.00
34185;BME280;20454;48.100;11.776;2022-12-10T00:07:37;94084.78;;;1.15;100.00
34185;BME280;20454;48.100;11.776;2022-12-10T00:10:03;94082.88;;;1.15;100.00
34185;BME280;20454;48.100;11.776;2022-12-10T00:12:28;94081.25;;;1.14;100.00
34185;BME280;20454;48.100;11.776;2022-12-10T00:14:54;94077.69;;;1.14;100.00
34185;BME280;20454;48.100;11.776;2022-12-10T00:17:20;94081.56;;;1.13;100.00
34185;BME280;20454;48.100;11.776;2022-12-10T00:19:45;94081.03;;;1.11;100.00
34185;BME280;20454;48.100;11.776;2022-12-10T00:22:11;94077.47;;;1.10;100.00
34185;BME280;20454;48.100;11.776;2022-12-10T00:24:37;94076.97;;;1.08;100.00
34185;BME280;20454;48.100;11.776;2022-12-10T00:27:02;94081.03;;;1.11;100.00
34185;BME280;20454;48.100;11.776;2022-12-10T00:29:28;94077.19;;;1.12;100.00
34185;BME280;20454;48.100;11.776;2022-12-10T00:31:54;94080.72;;;1.12;100.00
34185;BME280;20454;48.100;11.776;2022-12-10T00:34:19;94082.34;;;1.13;100.00
34185;BME280;20454;48.100;11.776;2022-12-10T00:36:47;94077.47;;;1.10;100.00
34185;BME280;20454;48.100;11.776;2022-12-10T00:39:16;94083.78;;;1.11;100.00
34185;BME280;20454;48.100;11.776;2022-12-10T00:41:42;94082.13;;;1.10;100.00
34185;BME280;20454;48.100;11.776;2022-12-10T00:44:08;94087.31;;;1.11;100.00
34185;BME280;20454;48.100;11.776;2022-12-10T00:46:34;94086.19;;;1.12;100.00
34185;BME280;20454;48.100;11.776;2022-12-10T00:48:59;94089.75;;;1.13;100.00
34185;BME280;20454;48.100;11.776;2022-12-10T00:51:26;94092.78;;;1.11;100.00
34185;BME280;20454;48.100;11.776;2022-12-10T00:53:54;94076.38;;;1.11;100.00
34185;BME280;20454;48.100;11.776;2022-12-10T00:56:22;94094.41;;;1.12;100.00
34185;BME280;20454;48.100;11.776;2022-12-10T00:58:48;94100.94;;;1.16;100.00
34185;BME280;20454;48.100;11.776;2022-12-10T01:01:31;94109.94;;;1.17;100.00
34185;BME280;20454;48.100;11.776;2022-12-10T01:03:59;94114.91;;;1.15;100.00
34185;BME280;20454;48.100;11.776;2022-12-10T01:06:30;94116.53;;;1.16;100.00
34185;BME280;20454;48.100;11.776;2022-12-10T01:09:00;94118.97;;;1.17;100.00
34185;BME280;20454;48.100;11.776;2022-12-10T01:11:29;94113.78;;;1.16;100.00
34185;BME280;20454;48.100;11.776;2022-12-10T01:13:56;94114.34;;;1.18;100.00
34185;BME280;20454;48.100;11.776;2022-12-10T01:16:22;94108.84;;;1.18;100.00
34185;BME280;20454;48.100;11.776;2022-12-10T01:18:48;94107.19;;;1.17;100.00
34185;BME280;20454;48.100;11.776;2022-12-10T01:21:17;94106.34;;;1.21;100.00
34185;BME280;20454;48.100;11.776;2022-12-10T01:23:44;94118.00;;;1.27;100.00
34185;BME280;20454;48.100;11.776;2022-12-10T01:26:16;94104.59;;;1.25;100.00
34185;BME280;20454;48.100;11.776;2022-12-10T01:28:42;94099.63;;;1.27;100.00
34185;BME280;20454;48.100;11.776;2022-12-10T01:31:13;94100.97;;;1.30;100.00
34185;BME280;20454;48.100;11.776;2022-12-10T01:33:39;94098.00;;;1.26;100.00
34185;BME280;20454;48.100;11.776;2022-12-10T01:36:13;94108.69;;;1.28;100.00
34185;BME280;20454;48.100;11.776;2022-12-10T01:38:39;94106.16;;;1.31;100.00
34185;BME280;20454;48.100;11.776;2022-12-10T01:41:06;94108.69;;;1.28;100.00
34185;BME280;20454;48.100;11.776;2022-12-10T01:46:22;94104.81;;;1.29;100.00
34185;BME280;20454;48.100;11.776;2022-12-10T01:48:48;94105.13;;;1.27;100.00
34185;BME280;20454;48.100;11.776;2022-12-10T01:51:15;94116.06;;;1.27;100.00
34185;BME280;20454;48.100;11.776;2022-12-10T01:53:41;94120.13;;;1.30;100.00
34185;BME280;20454;48.100;11.776;2022-12-10T01:56:09;94124.00;;;1.29;100.00
34185;BME280;20454;48.100;11.776;2022-12-10T01:58:35;94127.34;;;1.26;100.00
34185;BME280;20454;48.100;11.776;2022-12-10T02:01:15;94134.44;;;1.27;100.00
34185;BME280;20454;48.100;11.776;2022-12-10T02:09:58;94133.31;;;1.28;100.00
34185;BME280;20454;48.100;11.776;2022-12-10T02:12:45;94130.59;;;1.28;100.00
34185;BME280;20454;48.100;11.776;2022-12-10T02:15:18;94136.06;;;1.28;100.00
34185;BME280;20454;48.100;11.776;2022-12-10T02:17:50;94131.69;;;1.27;100.00
34185;BME280;20454;48.100;11.776;2022-12-10T02:20:27;94130.28;;;1.29;100.00
34185;BME280;20454;48.100;11.776;2022-12-10T02:23:07;94133.81;;;1.30;100.00
34185;BME280;20454;48.100;11.776;2022-12-10T02:25:44;94124.28;;;1.27;100.00
34185;BME280;20454;48.100;11.776;2022-12-10T02:30:52;94133.81;;;1.30;100.00
34185;BME280;20454;48.100;11.776;2022-12-10T02:33:19;94119.84;;;1.31;100.00
34185;BME280;20454;48.100;11.776;2022-12-10T02:35:46;94120.34;;;1.33;100.00
34185;BME280;20454;48.100;11.776;2022-12-10T02:38:24;94115.47;;;1.30;100.00
34185;BME280;20454;48.100;11.776;2022-12-10T02:40:53;94114.88;;;1.33;100.00
34185;BME280;20454;48.100;11.776;2022-12-10T02:43:22;94121.47;;;1.32;100.00
34185;BME280;20454;48.100;11.776;2022-12-10T02:45:49;94110.81;;;1.31;100.00
34185;BME280;20454;48.100;11.776;2022-12-10T02:48:15;94115.19;;;1.32;100.00
34185;BME280;20454;48.100;11.776;2022-12-10T02:50:42;94122.09;;;1.29;100.00
34185;BME280;20454;48.100;11.776;2022-12-10T02:53:08;94115.78;;;1.29;100.00
34185;BME280;20454;48.100;11.776;2022-12-10T02:55:55;94116.28;;;1.31;100.00
34185;BME280;20454;48.100;11.776;2022-12-10T02:58:36;94113.03;;;1.29;100.00
34185;BME280;20454;48.100;11.776;2022-12-10T06:30:58;94136.09;;;1.09;100.00
34185;BME280;20454;48.100;11.776;2022-12-10T06:33:24;94130.91;;;1.08;100.00
34185;BME280;20454;48.100;11.776;2022-12-10T06:35:50;94149.50;;;1.11;100.00
34185;BME280;20454;48.100;11.776;2022-12-10T06:38:16;94124.41;;;1.04;100.00
34185;BME280;20454;48.100;11.776;2022-12-10T06:40:41;94127.03;;;1.09;100.00
34185;BME280;20454;48.100;11.776;2022-12-10T06:43:07;94137.50;;;1.07;100.00
34185;BME280;20454;48.100;11.776;2022-12-10T06:45:33;94139.41;;;1.06;100.00
34185;BME280;20454;48.100;11.776;2022-12-10T06:47:59;94134.75;;;1.07;100.00
34185;BME280;20454;48.100;11.776;2022-12-10T06:50:24;94140.31;;;1.02;100.00
34185;BME280;20454;48.100;11.776;2022-12-10T06:52:50;94147.09;;;1.04;100.00
34185;BME280;20454;48.100;11.776;2022-12-10T06:55:16;94151.19;;;1.07;100.00
34185;BME280;20454;48.100;11.776;2022-12-10T06:57:42;94156.16;;;1.05;100.00
34185;BME280;20454;48.100;11.776;2022-12-10T07:00:08;94159.41;;;1.07;100.00
34185;BME280;20454;48.100;11.776;2022-12-10T07:02:34;94154.22;;;1.05;100.00
34185;BME280;20454;48.100;11.776;2022-12-10T07:05:00;94160.22;;;1.07;100.00
34185;BME280;20454;48.100;11.776;2022-12-10T07:07:25;94149.84;;;1.04;100.00
34185;BME280;20454;48.100;11.776;2022-12-10T07:09:51;94156.16;;;1.05;100.00
34185;BME280;20454;48.100;11.776;2022-12-10T07:12:17;94158.06;;;1.04;100.00
34185;BME280;20454;48.100;11.776;2022-12-10T07:14:42;94153.91;;;1.07;100.00
34185;BME280;20454;48.100;11.776;2022-12-10T07:17:08;94147.63;;;1.06;100.00
34185;BME280;20454;48.100;11.776;2022-12-10T07:19:33;94142.75;;;1.03;100.00
34185;BME280;20454;48.100;11.776;2022-12-10T07:21:59;94148.44;;;1.07;100.00
34185;BME280;20454;48.100;11.776;2022-12-10T07:24:25;94149.06;;;1.04;100.00
34185;BME280;20454;48.100;11.776;2022-12-10T07:26:51;94156.94;;;1.05;100.00
34185;BME280;20454;48.100;11.776;2022-12-10T07:29:20;94145.19;;;1.05;100.00
34185;BME280;20454;48.100;11.776;2022-12-10T07:31:46;94140.00;;;1.03;100.00
34185;BME280;20454;48.100;11.776;2022-12-10T07:34:13;94139.72;;;1.05;100.00
34185;BME280;20454;48.100;11.776;2022-12-10T07:36:39;94131.50;;;1.05;100.00
34185;BME280;20454;48.100;11.776;2022-12-10T07:39:06;94131.50;;;1.05;100.00
34185;BME280;20454;48.100;11.776;2022-12-10T07:41:33;94134.75;;;1.07;100.00
34185;BME280;20454;48.100;11.776;2022-12-10T07:43:59;94136.09;;;1.09;100.00
34185;BME280;20454;48.100;11.776;2022-12-10T07:46:30;94149.50;;;1.11;100.00
34185;BME280;20454;48.100;11.776;2022-12-10T07:48:56;94145.31;;;1.13;100.00
34185;BME280;20454;48.100;11.776;2022-12-10T07:51:22;94144.22;;;1.14;100.00
34185;BME280;20454;48.100;11.776;2022-12-10T07:53:50;94149.38;;;1.16;100.00
34185;BME280;20454;48.100;11.776;2022-12-10T07:56:19;94147.19;;;1.18;100.00
34185;BME280;20454;48.100;11.776;2022-12-10T07:58:46;94153.47;;;1.18;100.00
34185;BME280;20454;48.100;11.776;2022-12-10T08:01:15;94149.31;;;1.21;100.00
34185;BME280;20454;48.100;11.776;2022-12-10T08:03:41;94148.72;;;1.24;100.00
34185;BME280;20454;48.100;11.776;2022-12-10T08:06:09;94153.91;;;1.25;100.00
34185;BME280;20454;48.100;11.776;2022-12-10T08:08:36;94149.25;;;1.26;100.00
34185;BME280;20454;48.100;11.776;2022-12-10T08:11:04;94136.66;;;1.25;100.00
34185;BME280;20454;48.100;11.776;2022-12-10T08:13:29;94145.91;;;1.29;100.00
34185;BME280;20454;48.100;11.776;2022-12-10T08:16:06;94138.50;;;1.29;100.00
34185;BME280;20454;48.100;11.776;2022-12-10T10:10:04;94187.84;;;1.43;100.00
34185;BME280;20454;48.100;11.776;2022-12-10T10:12:31;94183.22;;;1.43;100.00
34185;BME280;20454;48.100;11.776;2022-12-10T10:14:58;94185.03;;;1.48;100.00
34185;BME280;20454;48.100;11.776;2022-12-10T10:17:29;94180.47;;;1.43;100.00
34185;BME280;20454;48.100;11.776;2022-12-10T10:19:56;94182.09;;;1.44;100.00
34185;BME280;20454;48.100;11.776;2022-12-10T10:22:22;94175.50;;;1.45;100.00
34185;BME280;20454;48.100;11.776;2022-12-10T10:24:47;94184.00;;;1.44;100.00
34185;BME280;20454;48.100;11.776;2022-12-10T10:29:46;94182.88;;;1.45;100.00
34185;BME280;20454;48.100;11.776;2022-12-10T10:34:41;94178.31;;;1.40;100.00
34185;BME280;20454;48.100;11.776;2022-12-10T10:37:27;94187.28;;;1.46;100.00
34185;BME280;20454;48.100;11.776;2022-12-10T10:39:54;94188.38;;;1.45;100.00
34185;BME280;20454;48.100;11.776;2022-12-10T10:44:49;94196.56;;;1.45;100.00
34185;BME280;20454;48.100;11.776;2022-12-10T10:47:28;94187.56;;;1.44;100.00
34185;BME280;20454;48.100;11.776;2022-12-10T10:49:54;94186.97;;;1.47;100.00
34185;BME280;20454;48.100;11.776;2022-12-10T10:52:20;94168.09;;;1.46;100.00
34185;BME280;20454;48.100;11.776;2022-12-10T10:54:47;94175.50;;;1.45;100.00
34185;BME280;20454;48.100;11.776;2022-12-10T10:57:35;94174.66;;;1.45;100.00
34185;BME280;20454;48.100;11.776;2022-12-10T11:00:19;94177.94;;;1.47;100.00
34185;BME280;20454;48.100;11.776;2022-12-10T11:02:45;94172.16;;;1.48;100.00
34185;BME280;20454;48.100;11.776;2022-12-10T11:05:24;94159.88;;;1.46;100.00
34185;BME280;20454;48.100;11.776;2022-12-10T11:07:58;94160.38;;;1.48;100.00
34185;BME280;20454;48.100;11.776;2022-12-10T11:10:25;94151.97;;;1.44;100.00
34185;BME280;20454;48.100;11.776;2022-12-10T11:13:07;94160.38;;;1.48;100.00
34185;BME280;20454;48.100;11.776;2022-12-10T11:15:38;94156.03;;;1.47;100.00
34185;BME280;20454;48.100;11.776;2022-12-10T11:18:25;94164.97;;;1.52;100.00
34185;BME280;20454;48.100;11.776;2022-12-10T11:21:02;94161.09;;;1.53;100.00
34185;BME280;20454;48.100;11.776;2022-12-10T11:23:31;94153.72;;;1.54;100.00
34185;BME280;20454;48.100;11.776;2022-12-10T11:26:09;94158.59;;;1.57;100.00
34185;BME280;20454;48.100;11.776;2022-12-10T11:36:42;94165.19;;;1.56;100.00
34185;BME280;20454;48.100;11.776;2022-12-10T11:40:32;94163.56;;;1.55;100.00
34185;BME280;20454;48.100;11.776;2022-12-10T11:42:28;94161.63;;;1.55;100.00
34185;BME280;20454;48.100;11.776;2022-12-10T11:56:22;94150.56;;;1.60;100.00
34185;BME280;20454;48.100;11.776;2022-12-10T11:59:16;94157.38;;;1.63;100.00
34185;BME280;20454;48.100;11.776;2022-12-10T12:04:33;94157.38;;;1.63;100.00
34185;BME280;20454;48.100;11.776;2022-12-10T12:07:23;94147.53;;;1.62;100.00
34185;BME280;20454;48.100;11.776;2022-12-10T12:10:17;94150.50;;;1.65;100.00
34185;BME280;20454;48.100;11.776;2022-12-10T12:13:05;94161.16;;;1.67;100.00
34185;BME280;20454;48.100;11.776;2022-12-10T12:15:54;94164.41;;;1.69;100.00
34185;BME280;20454;48.100;11.776;2022-12-10T12:21:15;94164.91;;;1.71;100.00
34185;BME280;20454;48.100;11.776;2022-12-10T12:23:59;94168.47;;;1.71;100.00
34185;BME280;20454;48.100;11.776;2022-12-10T12:26:32;94166.31;;;1.68;100.00
34185;BME280;20454;48.100;11.776;2022-12-10T12:31:43;94163.28;;;1.70;100.00
34185;BME280;20454;48.100;11.776;2022-12-10T12:34:24;94175.88;;;1.71;100.00
34185;BME280;20454;48.100;11.776;2022-12-10T12:36:51;94183.31;;;1.70;100.00
34185;BME280;20454;48.100;11.776;2022-12-10T12:39:32;94184.09;;;1.71;100.00
34185;BME280;20454;48.100;11.776;2022-12-10T12:44:32;94189.06;;;1.69;100.00
34185;BME280;20454;48.100;11.776;2022-12-10T12:47:05;94186.41;;;1.64;100.00
34185;BME280;20454;48.100;11.776;2022-12-10T12:49:37;94188.34;;;1.63;100.00
34185;BME280;20454;48.100;11.776;2022-12-10T12:54:38;94190.06;;;1.59;100.00
34185;BME280;20454;48.100;11.776;2022-12-10T12:57:31;94189.84;;;1.56;100.00
34185;BME280;20454;48.100;11.776;2022-12-10T13:00:03;94182.75;;;1.55;100.00
34185;BME280;20454;48.100;11.776;2022-12-10T13:03:06;94192.66;;;1.51;100.00
34185;BME280;20454;48.100;11.776;2022-12-10T13:05:37;94196.22;;;1.51;100.00
34185;BME280;20454;48.100;11.776;2022-12-10T13:14:02;94199.53;;;1.48;100.00
34185;BME280;20454;48.100;11.776;2022-12-10T13:16:47;94201.25;;;1.44;100.00
34185;BME280;20454;48.100;11.776;2022-12-10T13:35:29;94246.72;;;1.45;100.00
34185;BME280;20454;48.100;11.776;2022-12-10T13:38:04;94230.97;;;1.37;100.00
34185;BME280;20454;48.100;11.776;2022-12-10T13:49:00;94250.63;;;1.39;100.00
34185;BME280;20454;48.100;11.776;2022-12-10T13:57:10;94266.84;;;1.36;100.00
34185;BME280;20454;48.100;11.776;2022-12-10T14:00:20;94272.03;;;1.37;100.00
34185;BME280;20454;48.100;11.776;2022-12-10T14:02:51;94272.03;;;1.37;100.00
34185;BME280;20454;48.100;11.776;2022-12-10T14:06:08;94273.94;;;1.37;100.00
34185;BME280;20454;48.100;11.776;2022-12-10T14:08:37;94271.22;;;1.37;100.00
34185;BME280;20454;48.100;11.776;2022-12-10T14:11:10;94263.59;;;1.34;100.00
34185;BME280;20454;48.100;11.776;2022-12-10T14:13:42;94275.34;;;1.34;100.00
34185;BME280;20454;48.100;11.776;2022-12-10T14:16:14;94276.69;;;1.37;100.00
34185;BME280;20454;48.100;11.776;2022-12-10T14:18:42;94283.56;;;1.34;100.00
34185;BME280;20454;48.100;11.776;2022-12-10T14:21:12;94276.19;;;1.35;100.00
34185;BME280;20454;48.100;11.776;2022-12-10T14:23:44;94287.13;;;1.35;100.00
34185;BME280;20454;48.100;11.776;2022-12-10T14:26:20;94300.84;;;1.35;100.00
34185;BME280;20454;48.100;11.776;2022-12-10T14:31:44;94298.69;;;1.32;100.00
34185;BME280;20454;48.100;11.776;2022-12-10T14:34:14;94294.31;;;1.31;100.00
34185;BME280;20454;48.100;11.776;2022-12-10T14:36:50;94308.00;;;1.31;100.00
34185;BME280;20454;48.100;11.776;2022-12-10T14:39:38;94313.47;;;1.31;100.00
34185;BME280;20454;48.100;11.776;2022-12-10T14:42:05;94311.06;;;1.29;100.00
34185;BME280;20454;48.100;11.776;2022-12-10T14:44:34;94315.69;;;1.29;100.00
34185;BME280;20454;48.100;11.776;2022-12-10T14:47:14;94314.91;;;1.28;100.00
34185;BME280;20454;48.100;11.776;2022-12-10T14:49:44;94317.63;;;1.28;100.00
34185;BME280;20454;48.100;11.776;2022-12-10T14:52:21;94311.09;;;1.24;100.00
34185;BME280;20454;48.100;11.776;2022-12-10T14:54:48;94318.22;;;1.25;100.00
34185;BME280;20454;48.100;11.776;2022-12-10T14:57:27;94329.16;;;1.25;100.00
34185;BME280;20454;48.100;11.776;2022-12-10T15:00:21;94336.34;;;1.21;100.00
34185;BME280;20454;48.100;11.776;2022-12-10T15:02:56;94335.53;;;1.21;100.00
34185;BME280;20454;48.100;11.776;2022-12-10T15:05:32;94344.34;;;1.18;100.00
34185;BME280;20454;48.100;11.776;2022-12-10T15:08:03;94349.81;;;1.18;100.00
34185;BME280;20454;48.100;11.776;2022-12-10T15:10:37;94353.94;;;1.15;100.00
34185;BME280;20454;48.100;11.776;2022-12-10T15:13:05;94351.22;;;1.15;100.00
34185;BME280;20454;48.100;11.776;2022-12-10T15:15:37;94358.59;;;1.15;100.00
34185;BME280;20454;48.100;11.776;2022-12-10T15:26:01;94379.41;;;1.16;100.00
34185;BME280;20454;48.100;11.776;2022-12-10T15:34:01;94380.28;;;1.11;100.00
34185;BME280;20454;48.100;11.776;2022-12-10T15:36:52;94363.63;;;1.08;100.00
34185;BME280;20454;48.100;11.776;2022-12-10T15:39:35;94372.94;;;1.07;100.00
34185;BME280;20454;48.100;11.776;2022-12-10T15:42:07;94375.41;;;1.08;100.00
34185;BME280;20454;48.100;11.776;2022-12-10T15:44:38;94378.94;;;1.09;100.00
34185;BME280;20454;48.100;11.776;2022-12-10T15:47:18;94381.66;;;1.09;100.00
34185;BME280;20454;48.100;11.776;2022-12-10T15:49:44;94374.03;;;1.06;100.00
34185;BME280;20454;48.100;11.776;2022-12-10T15:52:16;94373.22;;;1.05;100.00
34185;BME280;20454;48.100;11.776;2022-12-10T15:54:44;94384.16;;;1.05;100.00
34185;BME280;20454;48.100;11.776;2022-12-10T15:57:24;94384.41;;;1.09;100.00
34185;BME280;20454;48.100;11.776;2022-12-10T15:59:51;94389.38;;;1.07;100.00
34185;BME280;20454;48.100;11.776;2022-12-10T16:02:39;94381.75;;;1.04;100.00
34185;BME280;20454;48.100;11.776;2022-12-10T16:05:31;94386.41;;;1.03;100.00
34185;BME280;20454;48.100;11.776;2022-12-10T16:08:17;94406.91;;;1.06;100.00
34185;BME280;20454;48.100;11.776;2022-12-10T16:10:44;94406.91;;;1.06;100.00
34185;BME280;20454;48.100;11.776;2022-12-10T16:13:22;94406.91;;;1.06;100.00
34185;BME280;20454;48.100;11.776;2022-12-10T16:15:52;94403.66;;;1.04;100.00
34185;BME280;20454;48.100;11.776;2022-12-10T16:18:19;94411.53;;;1.05;100.00
34185;BME280;20454;48.100;11.776;2022-12-10T16:20:45;94409.91;;;1.04;100.00
34185;BME280;20454;48.100;11.776;2022-12-10T16:23:11;94408.28;;;1.03;100.00
34185;BME280;20454;48.100;11.776;2022-12-10T16:25:37;94408.00;;;1.05;100.00
34185;BME280;20454;48.100;11.776;2022-12-10T16:28:08;94417.63;;;1.02;100.00
34185;BME280;20454;48.100;11.776;2022-12-10T16:30:42;94418.41;;;1.03;100.00
34185;BME280;20454;48.100;11.776;2022-12-10T16:33:08;94419.25;;;1.03;100.00
34185;BME280;20454;48.100;11.776;2022-12-10T16:35:34;94425.56;;;1.04;100.00
34185;BME280;20454;48.100;11.776;2022-12-10T16:37:59;94429.91;;;1.05;100.00
34185;BME280;20454;48.100;11.776;2022-12-10T16:40:26;94423.88;;;1.03;100.00
34185;BME280;20454;48.100;11.776;2022-12-10T16:42:53;94424.19;;;1.01;100.00
34185;BME280;20454;48.100;11.776;2022-12-10T16:45:26;94426.47;;;0.94;100.00
34185;BME280;20454;48.100;11.776;2022-12-10T16:47:54;94437.97;;;0.91;100.00
34185;BME280;20454;48.100;11.776;2022-12-10T16:50:20;94429.84;;;0.86;100.00
34185;BME280;20454;48.100;11.776;2022-12-10T16:52:46;94433.41;;;0.82;100.00
34185;BME280;20454;48.100;11.776;2022-12-10T16:55:17;94432.63;;;0.81;100.00
34185;BME280;20454;48.100;11.776;2022-12-10T16:57:44;94440.03;;;0.76;100.00
34185;BME280;20454;48.100;11.776;2022-12-10T17:00:17;94447.97;;;0.77;100.00
34185;BME280;20454;48.100;11.776;2022-12-10T17:02:43;94437.88;;;0.73;100.00
34185;BME280;20454;48.100;11.776;2022-12-10T17:05:13;94443.06;;;0.74;100.00
34185;BME280;20454;48.100;11.776;2022-12-10T17:07:40;94448.84;;;0.73;100.00
34185;BME280;20454;48.100;11.776;2022-12-10T17:10:05;94448.06;;;0.67;100.00
34185;BME280;20454;48.100;11.776;2022-12-10T17:12:31;94449.09;;;0.71;100.00
34185;BME280;20454;48.100;11.776;2022-12-10T17:14:57;94455.41;;;0.72;100.00
34185;BME280;20454;48.100;11.776;2022-12-10T17:17:23;94453.53;;;0.67;100.00
34185;BME280;20454;48.100;11.776;2022-12-10T17:19:49;94451.34;;;0.64;100.00
34185;BME280;20454;48.100;11.776;2022-12-10T17:22:15;94459.09;;;0.57;100.00
34185;BME280;20454;48.100;11.776;2022-12-10T17:24:41;94452.56;;;0.53;100.00
34185;BME280;20454;48.100;11.776;2022-12-10T17:27:13;94455.59;;;0.52;100.00
34185;BME280;20454;48.100;11.776;2022-12-10T17:29:42;94456.69;;;0.51;100.00
34185;BME280;20454;48.100;11.776;2022-12-10T17:32:13;94465.44;;;0.48;100.00
34185;BME280;20454;48.100;11.776;2022-12-10T17:34:39;94466.56;;;0.47;100.00
34185;BME280;20454;48.100;11.776;2022-12-10T17:37:14;94474.50;;;0.43;100.00
34185;BME280;20454;48.100;11.776;2022-12-10T17:39:40;94464.38;;;0.49;100.00
34185;BME280;20454;48.100;11.776;2022-12-10T17:42:05;94473.13;;;0.46;100.00
34185;BME280;20454;48.100;11.776;2022-12-10T17:44:33;94483.28;;;0.45;100.00
34185;BME280;20454;48.100;11.776;2022-12-10T17:46:59;94479.97;;;0.43;100.00
34185;BME280;20454;48.100;11.776;2022-12-10T17:49:26;94471.25;;;0.41;100.00
34185;BME280;20454;48.100;11.776;2022-12-10T17:51:51;94479.97;;;0.43;100.00
34185;BME280;20454;48.100;11.776;2022-12-10T17:54:17;94467.44;;;0.37;100.00
34185;BME280;20454;48.100;11.776;2022-12-10T21:06:00;94545.47;;;0.25;100.00
34185;BME280;20454;48.100;11.776;2022-12-10T21:08:26;94543.84;;;0.24;100.00
34185;BME280;20454;48.100;11.776;2022-12-10T21:10:52;94542.72;;;0.25;100.00
34185;BME280;20454;48.100;11.776;2022-12-10T21:13:26;94552.56;;;0.26;100.00
34185;BME280;20454;48.100;11.776;2022-12-10T21:15:53;94541.94;;;0.24;100.00
34185;BME280;20454;48.100;11.776;2022-12-10T21:18:20;94550.13;;;0.24;100.00
34185;BME280;20454;48.100;11.776;2022-12-10T21:20:47;94548.19;;;0.25;100.00
34185;BME280;20454;48.100;11.776;2022-12-10T21:23:15;94554.78;;;0.24;100.00
34185;BME280;20454;48.100;11.776;2022-12-10T21:25:41;94545.47;;;0.25;100.00
34185;BME280;20454;48.100;11.776;2022-12-10T21:28:07;94551.78;;;0.20;100.00
34185;BME280;20454;48.100;11.776;2022-12-10T21:30:33;94558.03;;;0.26;100.00
34185;BME280;20454;48.100;11.776;2022-12-10T21:32:59;94553.66;;;0.25;100.00
34185;BME280;20454;48.100;11.776;2022-12-10T21:35:24;94559.41;;;0.23;100.00
34185;BME280;20454;48.100;11.776;2022-12-10T21:37:50;94558.09;;;0.21;100.00
34185;BME280;20454;48.100;11.776;2022-12-10T21:40:16;94553.69;;;0.20;100.00
34185;BME280;20454;48.100;11.776;2022-12-10T21:42:42;94560.00;;;0.20;100.00
34185;BME280;20454;48.100;11.776;2022-12-10T21:45:27;94552.88;;;0.19;100.00
34185;BME280;20454;48.100;11.776;2022-12-10T21:47:54;94555.63;;;0.19;100.00
34185;BME280;20454;48.100;11.776;2022-12-10T21:50:20;94550.16;;;0.19;100.00
34185;BME280;20454;48.100;11.776;2022-12-10T21:52:45;94545.78;;;0.18;100.00
34185;BME280;20454;48.100;11.776;2022-12-10T21:55:11;94553.72;;;0.15;100.00
34185;BME280;20454;48.100;11.776;2022-12-10T21:57:36;94552.09;;;0.14;100.00
34185;BME280;20454;48.100;11.776;2022-12-10T22:00:04;94543.09;;;0.08;100.00
34185;BME280;20454;48.100;11.776;2022-12-10T22:02:30;94551.53;;;0.12;100.00
34185;BME280;20454;48.100;11.776;2022-12-10T22:04:55;94561.38;;;0.13;100.00
34185;BME280;20454;48.100;11.776;2022-12-10T22:07:23;94559.78;;;0.07;100.00
34185;BME280;20454;48.100;11.776;2022-12-10T22:09:49;94564.69;;;0.10;100.00
34185;BME280;20454;48.100;11.776;2022-12-10T22:12:15;94565.53;;;0.10;100.00
34185;BME280;20454;48.100;11.776;2022-12-10T22:14:41;94561.69;;;0.11;100.00
34185;BME280;20454;48.100;11.776;2022-12-10T22:17:07;94562.47;;;0.12;100.00
34185;BME280;20454;48.100;11.776;2022-12-10T22:19:33;94557.06;;;0.02;100.00
34185;BME280;20454;48.100;11.776;2022-12-10T22:21:59;94563.06;;;0.09;100.00
34185;BME280;20454;48.100;11.776;2022-12-10T22:24:24;94560.84;;;0.11;100.00
34185;BME280;20454;48.100;11.776;2022-12-10T22:26:50;94566.84;;;0.13;100.00
34185;BME280;20454;48.100;11.776;2022-12-10T22:29:16;94558.94;;;0.11;100.00
34185;BME280;20454;48.100;11.776;2022-12-10T22:31:41;94553.47;;;0.11;100.00
34185;BME280;20454;48.100;11.776;2022-12-10T22:34:07;94555.13;;;0.12;100.00
34185;BME280;20454;48.100;11.776;2022-12-10T22:36:33;94552.66;;;0.06;100.00
34185;BME280;20454;48.100;11.776;2022-12-10T22:38:58;94560.06;;;0.10;100.00
34185;BME280;20454;48.100;11.776;2022-12-10T22:41:24;94559.75;;;0.12;100.00
34185;BME280;20454;48.100;11.776;2022-12-10T22:43:50;94562.22;;;0.13;100.00
34185;BME280;20454;48.100;11.776;2022-12-10T22:46:15;94558.66;;;0.13;100.00
34185;BME280;20454;48.100;11.776;2022-12-10T22:48:41;94555.91;;;0.13;100.00
34185;BME280;20454;48.100;11.776;2022-12-10T22:51:07;94549.38;;;0.09;100.00
34185;BME280;20454;48.100;11.776;2022-12-10T22:53:34;94544.97;;;0.13;100.00
34185;BME280;20454;48.100;11.776;2022-12-10T22:56:01;94545.81;;;0.08;100.00
34185;BME280;20454;48.100;11.776;2022-12-10T22:58:27;94552.13;;;0.09;100.00
34185;BME280;20454;48.100;11.776;2022-12-10T23:00:53;94552.97;;;0.04;100.00
34185;BME280;20454;48.100;11.776;2022-12-10T23:03:19;94547.78;;;-0.02;100.00
34185;BME280;20454;48.100;11.776;2022-12-10T23:05:48;94556.81;;;0.03;100.00
34185;BME280;20454;48.100;11.776;2022-12-10T23:08:14;94563.91;;;0.04;100.00
34185;BME280;20454;48.100;11.776;2022-12-10T23:10:40;94556.81;;;0.03;100.00
34185;BME280;20454;48.100;11.776;2022-12-10T23:13:06;94551.59;;;0.02;100.00
34185;BME280;20454;48.100;11.776;2022-12-10T23:15:33;94549.41;;;0.04;100.00
34185;BME280;20454;48.100;11.776;2022-12-10T23:17:59;94558.44;;;0.04;100.00
34185;BME280;20454;48.100;11.776;2022-12-10T23:20:25;94553.50;;;0.01;100.00